sensor_id;sensor_type;location;lat;lon;timestamp;P1;durP1;ratioP1;P2;durP2;ratioP2
72674;SDS011;60752;53.962;9.614;2022-10-16T00:02:50;10.13;;;3.90;;
72674;SDS011;60752;53.962;9.614;2022-10-16T00:07:50;7.60;;;3.90;;
72674;SDS011;60752;53.962;9.614;2022-10-16T00:12:52;8.80;;;3.30;;
72674;SDS011;60752;53.962;9.614;2022-10-16T00:17:52;7.97;;;3.47;;
72674;SDS011;60752;53.962;9.614;2022-10-16T00:22:53;7.32;;;3.42;;
72674;SDS011;60752;53.962;9.614;2022-10-16T00:27:55;6.63;;;3.40;;
72674;SDS011;60752;53.962;9.614;2022-10-16T00:32:55;8.33;;;3.33;;
72674;SDS011;60752;53.962;9.614;2022-10-16T00:37:56;9.53;;;3.77;;
72674;SDS011;60752;53.962;9.614;2022-10-16T00:42:57;9.60;;;4.00;;
72674;SDS011;60752;53.962;9.614;2022-10-16T00:47:58;9.97;;;3.97;;
72674;SDS011;60752;53.962;9.614;2022-10-16T00:52:59;7.87;;;3.60;;
72674;SDS011;60752;53.962;9.614;2022-10-16T00:58:02;9.57;;;4.20;;
72674;SDS011;60752;53.962;9.614;2022-10-16T01:08:25;10.03;;;3.67;;
72674;SDS011;60752;53.962;9.614;2022-10-16T01:13:35;8.35;;;3.97;;
72674;SDS011;60752;53.962;9.614;2022-10-16T01:18:43;8.73;;;4.18;;
72674;SDS011;60752;53.962;9.614;2022-10-16T01:23:47;10.43;;;4.23;;
72674;SDS011;60752;53.962;9.614;2022-10-16T01:28:59;8.43;;;3.97;;
72674;SDS011;60752;53.962;9.614;2022-10-16T01:34:05;9.23;;;3.90;;
72674;SDS011;60752;53.962;9.614;2022-10-16T01:39:13;8.60;;;3.73;;
72674;SDS011;60752;53.962;9.614;2022-10-16T01:44:17;9.73;;;3.80;;
72674;SDS011;60752;53.962;9.614;2022-10-16T01:49:20;8.10;;;3.50;;
72674;SDS011;60752;53.962;9.614;2022-10-16T01:54:22;11.93;;;3.83;;
72674;SDS011;60752;53.962;9.614;2022-10-16T01:59:28;9.13;;;3.27;;
72674;SDS011;60752;53.962;9.614;2022-10-16T02:04:33;7.22;;;3.63;;
72674;SDS011;60752;53.962;9.614;2022-10-16T02:09:36;10.07;;;3.20;;
72674;SDS011;60752;53.962;9.614;2022-10-16T02:14:39;8.80;;;3.40;;
72674;SDS011;60752;53.962;9.614;2022-10-16T02:19:40;7.97;;;3.20;;
72674;SDS011;60752;53.962;9.614;2022-10-16T02:24:42;9.17;;;2.90;;
72674;SDS011;60752;53.962;9.614;2022-10-16T02:29:53;6.32;;;3.05;;
72674;SDS011;60752;53.962;9.614;2022-10-16T02:34:58;8.45;;;2.78;;
72674;SDS011;60752;53.962;9.614;2022-10-16T02:40:00;6.60;;;2.43;;
72674;SDS011;60752;53.962;9.614;2022-10-16T02:45:02;7.03;;;2.03;;
72674;SDS011;60752;53.962;9.614;2022-10-16T02:50:03;5.80;;;2.42;;
72674;SDS011;60752;53.962;9.614;2022-10-16T02:55:04;4.18;;;1.70;;
72674;SDS011;60752;53.962;9.614;2022-10-16T03:00:08;4.70;;;1.97;;
72674;SDS011;60752;53.962;9.614;2022-10-16T03:05:10;5.30;;;1.58;;
72674;SDS011;60752;53.962;9.614;2022-10-16T03:10:10;5.07;;;1.60;;
72674;SDS011;60752;53.962;9.614;2022-10-16T03:15:12;4.70;;;1.20;;
72674;SDS011;60752;53.962;9.614;2022-10-16T03:20:13;5.68;;;1.63;;
72674;SDS011;60752;53.962;9.614;2022-10-16T03:25:13;7.00;;;1.93;;
72674;SDS011;60752;53.962;9.614;2022-10-16T03:30:15;3.53;;;1.57;;
72674;SDS011;60752;53.962;9.614;2022-10-16T03:35:16;5.55;;;1.40;;
72674;SDS011;60752;53.962;9.614;2022-10-16T03:40:16;6.00;;;1.50;;
72674;SDS011;60752;53.962;9.614;2022-10-16T03:45:18;6.10;;;1.47;;
72674;SDS011;60752;53.962;9.614;2022-10-16T03:50:18;6.07;;;1.30;;
72674;SDS011;60752;53.962;9.614;2022-10-16T03:55:19;4.60;;;1.50;;
72674;SDS011;60752;53.962;9.614;2022-10-16T04:00:21;4.97;;;1.60;;
72674;SDS011;60752;53.962;9.614;2022-10-16T04:05:21;4.40;;;1.48;;
72674;SDS011;60752;53.962;9.614;2022-10-16T04:10:21;5.00;;;1.50;;
72674;SDS011;60752;53.962;9.614;2022-10-16T04:15:23;7.43;;;1.63;;
72674;SDS011;60752;53.962;9.614;2022-10-16T04:20:25;5.60;;;1.40;;
72674;SDS011;60752;53.962;9.614;2022-10-16T04:25:25;5.00;;;1.50;;
72674;SDS011;60752;53.962;9.614;2022-10-16T04:30:27;9.10;;;1.57;;
72674;SDS011;60752;53.962;9.614;2022-10-16T04:35:27;5.20;;;1.40;;
72674;SDS011;60752;53.962;9.614;2022-10-16T04:40:27;6.20;;;1.47;;
72674;SDS011;60752;53.962;9.614;2022-10-16T04:45:29;4.00;;;1.50;;
72674;SDS011;60752;53.962;9.614;2022-10-16T04:50:30;4.72;;;1.75;;
72674;SDS011;60752;53.962;9.614;2022-10-16T04:55:30;7.40;;;1.60;;
72674;SDS011;60752;53.962;9.614;2022-10-16T05:00:32;5.00;;;1.50;;
72674;SDS011;60752;53.962;9.614;2022-10-16T05:05:32;8.02;;;1.20;;
72674;SDS011;60752;53.962;9.614;2022-10-16T05:10:33;4.73;;;1.47;;
72674;SDS011;60752;53.962;9.614;2022-10-16T05:15:35;5.70;;;1.20;;
72674;SDS011;60752;53.962;9.614;2022-10-16T05:20:35;7.10;;;1.33;;
72674;SDS011;60752;53.962;9.614;2022-10-16T05:25:35;5.03;;;1.33;;
72674;SDS011;60752;53.962;9.614;2022-10-16T05:30:38;4.10;;;1.23;;
72674;SDS011;60752;53.962;9.614;2022-10-16T05:35:38;4.17;;;1.30;;
72674;SDS011;60752;53.962;9.614;2022-10-16T05:40:38;3.60;;;1.20;;
72674;SDS011;60752;53.962;9.614;2022-10-16T05:45:40;4.67;;;1.50;;
72674;SDS011;60752;53.962;9.614;2022-10-16T05:50:41;5.13;;;1.33;;
72674;SDS011;60752;53.962;9.614;2022-10-16T05:55:41;3.93;;;1.50;;
72674;SDS011;60752;53.962;9.614;2022-10-16T06:00:43;3.53;;;1.10;;
72674;SDS011;60752;53.962;9.614;2022-10-16T06:05:43;3.72;;;1.33;;
72674;SDS011;60752;53.962;9.614;2022-10-16T06:10:44;5.80;;;1.30;;
72674;SDS011;60752;53.962;9.614;2022-10-16T06:15:46;4.15;;;1.40;;
72674;SDS011;60752;53.962;9.614;2022-10-16T06:20:46;6.43;;;1.47;;
72674;SDS011;60752;53.962;9.614;2022-10-16T06:25:47;6.20;;;1.63;;
72674;SDS011;60752;53.962;9.614;2022-10-16T06:30:49;5.27;;;1.57;;
72674;SDS011;60752;53.962;9.614;2022-10-16T06:36:02;5.63;;;1.73;;
72674;SDS011;60752;53.962;9.614;2022-10-16T06:41:03;5.13;;;1.75;;
72674;SDS011;60752;53.962;9.614;2022-10-16T06:46:06;9.13;;;2.15;;
72674;SDS011;60752;53.962;9.614;2022-10-16T06:51:10;8.00;;;2.50;;
72674;SDS011;60752;53.962;9.614;2022-10-16T06:56:12;6.35;;;2.03;;
72674;SDS011;60752;53.962;9.614;2022-10-16T07:01:16;6.97;;;2.75;;
72674;SDS011;60752;53.962;9.614;2022-10-16T07:06:19;7.50;;;2.07;;
72674;SDS011;60752;53.962;9.614;2022-10-16T07:11:21;6.30;;;2.53;;
72674;SDS011;60752;53.962;9.614;2022-10-16T07:16:24;6.22;;;2.92;;
72674;SDS011;60752;53.962;9.614;2022-10-16T07:21:26;8.57;;;2.40;;
72674;SDS011;60752;53.962;9.614;2022-10-16T07:26:28;10.10;;;3.07;;
72674;SDS011;60752;53.962;9.614;2022-10-16T07:31:32;7.38;;;2.75;;
72674;SDS011;60752;53.962;9.614;2022-10-16T07:36:32;7.05;;;2.67;;
72674;SDS011;60752;53.962;9.614;2022-10-16T07:41:33;8.10;;;3.90;;
72674;SDS011;60752;53.962;9.614;2022-10-16T07:46:35;10.10;;;2.93;;
72674;SDS011;60752;53.962;9.614;2022-10-16T07:51:35;9.38;;;3.42;;
72674;SDS011;60752;53.962;9.614;2022-10-16T07:56:35;8.40;;;3.63;;
72674;SDS011;60752;53.962;9.614;2022-10-16T08:01:37;9.27;;;3.20;;
72674;SDS011;60752;53.962;9.614;2022-10-16T08:06:38;10.70;;;3.83;;
72674;SDS011;60752;53.962;9.614;2022-10-16T08:11:40;8.88;;;3.55;;
72674;SDS011;60752;53.962;9.614;2022-10-16T08:16:41;7.10;;;3.03;;
72674;SDS011;60752;53.962;9.614;2022-10-16T08:21:42;9.23;;;3.67;;
72674;SDS011;60752;53.962;9.614;2022-10-16T08:26:42;7.77;;;3.50;;
72674;SDS011;60752;53.962;9.614;2022-10-16T08:31:44;9.37;;;3.23;;
72674;SDS011;60752;53.962;9.614;2022-10-16T08:36:45;7.63;;;3.45;;
72674;SDS011;60752;53.962;9.614;2022-10-16T08:41:56;8.43;;;3.67;;
72674;SDS011;60752;53.962;9.614;2022-10-16T08:47:08;7.90;;;3.00;;
72674;SDS011;60752;53.962;9.614;2022-10-16T08:52:16;5.65;;;2.40;;
72674;SDS011;60752;53.962;9.614;2022-10-16T08:57:19;10.07;;;3.40;;
72674;SDS011;60752;53.962;9.614;2022-10-16T09:02:26;7.88;;;2.67;;
72674;SDS011;60752;53.962;9.614;2022-10-16T09:07:32;6.57;;;2.90;;
72674;SDS011;60752;53.962;9.614;2022-10-16T09:12:39;8.43;;;3.30;;
72674;SDS011;60752;53.962;9.614;2022-10-16T09:17:52;8.48;;;3.20;;
72674;SDS011;60752;53.962;9.614;2022-10-16T09:23:00;9.25;;;3.53;;
72674;SDS011;60752;53.962;9.614;2022-10-16T09:28:12;6.90;;;2.57;;
72674;SDS011;60752;53.962;9.614;2022-10-16T09:33:15;7.45;;;2.70;;
72674;SDS011;60752;53.962;9.614;2022-10-16T09:38:21;7.63;;;2.73;;
72674;SDS011;60752;53.962;9.614;2022-10-16T09:43:23;7.13;;;3.23;;
72674;SDS011;60752;53.962;9.614;2022-10-16T09:48:28;7.25;;;2.60;;
72674;SDS011;60752;53.962;9.614;2022-10-16T09:53:40;6.25;;;2.78;;
72674;SDS011;60752;53.962;9.614;2022-10-16T09:58:43;8.63;;;2.40;;
72674;SDS011;60752;53.962;9.614;2022-10-16T10:03:50;6.13;;;2.30;;
72674;SDS011;60752;53.962;9.614;2022-10-16T10:09:03;7.78;;;2.20;;
72674;SDS011;60752;53.962;9.614;2022-10-16T10:14:06;7.27;;;1.77;;
72674;SDS011;60752;53.962;9.614;2022-10-16T10:19:17;4.43;;;1.58;;
72674;SDS011;60752;53.962;9.614;2022-10-16T10:24:19;10.52;;;2.30;;
72674;SDS011;60752;53.962;9.614;2022-10-16T10:29:32;5.30;;;1.57;;
72674;SDS011;60752;53.962;9.614;2022-10-16T10:34:47;7.05;;;1.30;;
72674;SDS011;60752;53.962;9.614;2022-10-16T10:39:57;4.57;;;1.50;;
72674;SDS011;60752;53.962;9.614;2022-10-16T10:45:12;5.50;;;1.33;;
72674;SDS011;60752;53.962;9.614;2022-10-16T10:50:20;5.10;;;1.23;;
72674;SDS011;60752;53.962;9.614;2022-10-16T10:55:27;4.60;;;1.00;;
72674;SDS011;60752;53.962;9.614;2022-10-16T11:00:39;8.00;;;1.03;;
72674;SDS011;60752;53.962;9.614;2022-10-16T11:05:48;3.72;;;1.10;;
72674;SDS011;60752;53.962;9.614;2022-10-16T11:10:53;5.88;;;1.10;;
72674;SDS011;60752;53.962;9.614;2022-10-16T11:15:58;4.70;;;0.90;;
72674;SDS011;60752;53.962;9.614;2022-10-16T11:21:04;4.15;;;1.02;;
72674;SDS011;60752;53.962;9.614;2022-10-16T11:26:10;4.85;;;1.00;;
72674;SDS011;60752;53.962;9.614;2022-10-16T11:31:17;6.50;;;1.43;;
72674;SDS011;60752;53.962;9.614;2022-10-16T11:36:27;4.60;;;1.08;;
72674;SDS011;60752;53.962;9.614;2022-10-16T11:41:35;5.30;;;1.00;;
72674;SDS011;60752;53.962;9.614;2022-10-16T11:46:43;8.87;;;1.00;;
72674;SDS011;60752;53.962;9.614;2022-10-16T11:51:52;6.07;;;1.73;;
72674;SDS011;60752;53.962;9.614;2022-10-16T11:56:59;4.72;;;1.08;;
72674;SDS011;60752;53.962;9.614;2022-10-16T12:02:15;7.40;;;0.95;;
72674;SDS011;60752;53.962;9.614;2022-10-16T12:07:32;5.47;;;1.17;;
72674;SDS011;60752;53.962;9.614;2022-10-16T12:12:37;3.55;;;0.90;;
72674;SDS011;60752;53.962;9.614;2022-10-16T12:17:38;4.63;;;1.00;;
72674;SDS011;60752;53.962;9.614;2022-10-16T12:22:42;5.67;;;1.23;;
72674;SDS011;60752;53.962;9.614;2022-10-16T12:27:53;4.60;;;1.10;;
72674;SDS011;60752;53.962;9.614;2022-10-16T12:32:56;6.63;;;1.20;;
72674;SDS011;60752;53.962;9.614;2022-10-16T12:38:06;7.00;;;1.38;;
72674;SDS011;60752;53.962;9.614;2022-10-16T12:43:13;6.68;;;1.35;;
72674;SDS011;60752;53.962;9.614;2022-10-16T12:48:25;5.07;;;1.13;;
72674;SDS011;60752;53.962;9.614;2022-10-16T12:53:27;4.23;;;1.10;;
72674;SDS011;60752;53.962;9.614;2022-10-16T12:58:32;8.43;;;1.15;;
72674;SDS011;60752;53.962;9.614;2022-10-16T13:03:57;8.70;;;1.35;;
72674;SDS011;60752;53.962;9.614;2022-10-16T13:09:15;4.83;;;0.90;;
72674;SDS011;60752;53.962;9.614;2022-10-16T13:14:37;6.93;;;0.90;;
72674;SDS011;60752;53.962;9.614;2022-10-16T13:20:00;5.53;;;1.10;;
72674;SDS011;60752;53.962;9.614;2022-10-16T13:25:14;5.45;;;1.20;;
72674;SDS011;60752;53.962;9.614;2022-10-16T13:30:23;5.27;;;0.83;;
72674;SDS011;60752;53.962;9.614;2022-10-16T13:35:26;4.93;;;1.05;;
72674;SDS011;60752;53.962;9.614;2022-10-16T13:40:29;7.70;;;1.40;;
72674;SDS011;60752;53.962;9.614;2022-10-16T13:45:29;6.40;;;1.30;;
72674;SDS011;60752;53.962;9.614;2022-10-16T13:50:30;4.87;;;0.90;;
72674;SDS011;60752;53.962;9.614;2022-10-16T13:55:31;4.63;;;1.17;;
72674;SDS011;60752;53.962;9.614;2022-10-16T14:00:32;7.80;;;1.70;;
72674;SDS011;60752;53.962;9.614;2022-10-16T14:05:33;5.90;;;1.67;;
72674;SDS011;60752;53.962;9.614;2022-10-16T14:10:37;5.90;;;0.80;;
72674;SDS011;60752;53.962;9.614;2022-10-16T14:15:38;5.68;;;1.10;;
72674;SDS011;60752;53.962;9.614;2022-10-16T14:20:39;7.13;;;1.30;;
72674;SDS011;60752;53.962;9.614;2022-10-16T14:25:41;8.87;;;1.37;;
72674;SDS011;60752;53.962;9.614;2022-10-16T14:30:49;5.78;;;1.25;;
72674;SDS011;60752;53.962;9.614;2022-10-16T14:36:01;5.90;;;1.45;;
72674;SDS011;60752;53.962;9.614;2022-10-16T14:41:05;6.87;;;1.20;;
72674;SDS011;60752;53.962;9.614;2022-10-16T14:46:06;4.97;;;1.13;;
72674;SDS011;60752;53.962;9.614;2022-10-16T14:51:12;7.20;;;1.40;;
72674;SDS011;60752;53.962;9.614;2022-10-16T14:56:16;12.17;;;1.57;;
72674;SDS011;60752;53.962;9.614;2022-10-16T15:01:18;5.38;;;1.40;;
72674;SDS011;60752;53.962;9.614;2022-10-16T15:06:19;7.57;;;2.05;;
72674;SDS011;60752;53.962;9.614;2022-10-16T15:11:21;8.10;;;1.40;;
72674;SDS011;60752;53.962;9.614;2022-10-16T15:16:21;11.45;;;1.40;;
72674;SDS011;60752;53.962;9.614;2022-10-16T15:21:23;12.50;;;1.50;;
72674;SDS011;60752;53.962;9.614;2022-10-16T15:26:27;8.20;;;1.50;;
72674;SDS011;60752;53.962;9.614;2022-10-16T15:31:28;8.95;;;1.75;;
72674;SDS011;60752;53.962;9.614;2022-10-16T15:36:30;8.63;;;1.90;;
72674;SDS011;60752;53.962;9.614;2022-10-16T15:41:33;5.53;;;1.70;;
72674;SDS011;60752;53.962;9.614;2022-10-16T15:46:33;9.67;;;1.50;;
72674;SDS011;60752;53.962;9.614;2022-10-16T15:51:34;9.43;;;1.60;;
72674;SDS011;60752;53.962;9.614;2022-10-16T15:56:39;14.30;;;1.77;;
72674;SDS011;60752;53.962;9.614;2022-10-16T16:01:39;6.60;;;1.50;;
72674;SDS011;60752;53.962;9.614;2022-10-16T16:06:40;6.60;;;1.70;;
72674;SDS011;60752;53.962;9.614;2022-10-16T16:11:42;9.53;;;1.57;;
72674;SDS011;60752;53.962;9.614;2022-10-16T16:16:42;13.98;;;1.80;;
72674;SDS011;60752;53.962;9.614;2022-10-16T16:21:43;12.20;;;1.80;;
72674;SDS011;60752;53.962;9.614;2022-10-16T16:26:45;12.67;;;2.23;;
72674;SDS011;60752;53.962;9.614;2022-10-16T16:31:45;12.23;;;1.83;;
72674;SDS011;60752;53.962;9.614;2022-10-16T16:36:46;10.60;;;2.00;;
72674;SDS011;60752;53.962;9.614;2022-10-16T16:41:48;10.23;;;2.20;;
72674;SDS011;60752;53.962;9.614;2022-10-16T16:46:48;12.75;;;2.00;;
72674;SDS011;60752;53.962;9.614;2022-10-16T16:51:49;11.83;;;2.10;;
72674;SDS011;60752;53.962;9.614;2022-10-16T16:56:50;12.70;;;2.50;;
72674;SDS011;60752;53.962;9.614;2022-10-16T17:01:51;6.57;;;1.48;;
72674;SDS011;60752;53.962;9.614;2022-10-16T17:06:52;11.70;;;2.30;;
72674;SDS011;60752;53.962;9.614;2022-10-16T17:11:54;15.17;;;2.20;;
72674;SDS011;60752;53.962;9.614;2022-10-16T17:16:54;10.43;;;2.80;;
72674;SDS011;60752;53.962;9.614;2022-10-16T17:21:55;15.90;;;2.43;;
72674;SDS011;60752;53.962;9.614;2022-10-16T17:26:57;15.20;;;2.30;;
72674;SDS011;60752;53.962;9.614;2022-10-16T17:31:57;9.45;;;2.45;;
72674;SDS011;60752;53.962;9.614;2022-10-16T17:36:57;16.60;;;3.40;;
72674;SDS011;60752;53.962;9.614;2022-10-16T17:41:59;14.53;;;2.47;;
72674;SDS011;60752;53.962;9.614;2022-10-16T17:47:00;19.25;;;4.07;;
72674;SDS011;60752;53.962;9.614;2022-10-16T17:52:00;16.10;;;4.30;;
72674;SDS011;60752;53.962;9.614;2022-10-16T17:57:02;12.67;;;2.83;;
72674;SDS011;60752;53.962;9.614;2022-10-16T18:02:03;14.50;;;3.03;;
72674;SDS011;60752;53.962;9.614;2022-10-16T18:07:03;11.97;;;3.00;;
72674;SDS011;60752;53.962;9.614;2022-10-16T18:12:05;19.40;;;3.40;;
72674;SDS011;60752;53.962;9.614;2022-10-16T18:17:05;10.23;;;3.33;;
72674;SDS011;60752;53.962;9.614;2022-10-16T18:22:06;23.60;;;3.93;;
72674;SDS011;60752;53.962;9.614;2022-10-16T18:27:07;21.10;;;2.27;;
72674;SDS011;60752;53.962;9.614;2022-10-16T18:32:08;11.90;;;3.27;;
72674;SDS011;60752;53.962;9.614;2022-10-16T18:37:08;17.77;;;4.87;;
72674;SDS011;60752;53.962;9.614;2022-10-16T18:42:10;11.83;;;3.80;;
72674;SDS011;60752;53.962;9.614;2022-10-16T18:47:10;13.70;;;3.85;;
72674;SDS011;60752;53.962;9.614;2022-10-16T18:52:11;13.07;;;2.90;;
72674;SDS011;60752;53.962;9.614;2022-10-16T18:57:13;13.90;;;3.53;;
72674;SDS011;60752;53.962;9.614;2022-10-16T19:02:13;22.17;;;4.22;;
72674;SDS011;60752;53.962;9.614;2022-10-16T19:07:13;20.73;;;5.03;;
72674;SDS011;60752;53.962;9.614;2022-10-16T19:12:15;14.23;;;4.17;;
72674;SDS011;60752;53.962;9.614;2022-10-16T19:17:16;19.67;;;5.30;;
72674;SDS011;60752;53.962;9.614;2022-10-16T19:22:16;11.27;;;3.57;;
72674;SDS011;60752;53.962;9.614;2022-10-16T19:27:18;11.50;;;3.50;;
72674;SDS011;60752;53.962;9.614;2022-10-16T19:32:18;10.97;;;3.70;;
72674;SDS011;60752;53.962;9.614;2022-10-16T19:37:19;20.33;;;4.70;;
72674;SDS011;60752;53.962;9.614;2022-10-16T19:42:20;12.03;;;4.10;;
72674;SDS011;60752;53.962;9.614;2022-10-16T19:47:21;13.82;;;3.70;;
72674;SDS011;60752;53.962;9.614;2022-10-16T19:52:21;14.73;;;3.30;;
72674;SDS011;60752;53.962;9.614;2022-10-16T19:57:23;11.80;;;3.37;;
72674;SDS011;60752;53.962;9.614;2022-10-16T20:02:24;12.90;;;3.20;;
72674;SDS011;60752;53.962;9.614;2022-10-16T20:07:24;12.17;;;2.60;;
72674;SDS011;60752;53.962;9.614;2022-10-16T20:12:26;12.33;;;3.10;;
72674;SDS011;60752;53.962;9.614;2022-10-16T20:17:26;14.50;;;3.17;;
72674;SDS011;60752;53.962;9.614;2022-10-16T20:22:27;10.37;;;2.50;;
72674;SDS011;60752;53.962;9.614;2022-10-16T20:27:29;13.00;;;2.80;;
72674;SDS011;60752;53.962;9.614;2022-10-16T20:32:29;10.93;;;2.77;;
72674;SDS011;60752;53.962;9.614;2022-10-16T20:37:29;16.13;;;3.33;;
72674;SDS011;60752;53.962;9.614;2022-10-16T20:42:31;11.27;;;3.70;;
72674;SDS011;60752;53.962;9.614;2022-10-16T20:47:32;11.88;;;3.63;;
72674;SDS011;60752;53.962;9.614;2022-10-16T20:52:32;9.30;;;2.57;;
72674;SDS011;60752;53.962;9.614;2022-10-16T20:57:34;8.65;;;1.95;;
72674;SDS011;60752;53.962;9.614;2022-10-16T21:02:35;13.20;;;2.47;;
72674;SDS011;60752;53.962;9.614;2022-10-16T21:07:36;11.17;;;2.17;;
72674;SDS011;60752;53.962;9.614;2022-10-16T21:12:37;23.17;;;4.88;;
72674;SDS011;60752;53.962;9.614;2022-10-16T21:17:38;23.43;;;5.63;;
72674;SDS011;60752;53.962;9.614;2022-10-16T21:22:38;19.67;;;5.53;;
72674;SDS011;60752;53.962;9.614;2022-10-16T21:27:40;19.80;;;6.20;;
72674;SDS011;60752;53.962;9.614;2022-10-16T21:32:40;22.05;;;5.75;;
72674;SDS011;60752;53.962;9.614;2022-10-16T21:37:41;23.37;;;5.53;;
72674;SDS011;60752;53.962;9.614;2022-10-16T21:42:43;17.30;;;3.77;;
72674;SDS011;60752;53.962;9.614;2022-10-16T21:47:43;19.48;;;4.38;;
72674;SDS011;60752;53.962;9.614;2022-10-16T21:52:45;14.23;;;3.53;;
72674;SDS011;60752;53.962;9.614;2022-10-16T21:57:47;7.23;;;2.43;;
72674;SDS011;60752;53.962;9.614;2022-10-16T22:02:48;8.67;;;2.50;;
72674;SDS011;60752;53.962;9.614;2022-10-16T22:07:48;11.60;;;2.50;;
72674;SDS011;60752;53.962;9.614;2022-10-16T22:12:50;13.03;;;2.60;;
72674;SDS011;60752;53.962;9.614;2022-10-16T22:17:50;12.23;;;2.58;;
72674;SDS011;60752;53.962;9.614;2022-10-16T22:22:51;13.43;;;3.83;;
72674;SDS011;60752;53.962;9.614;2022-10-16T22:27:52;8.90;;;2.60;;
72674;SDS011;60752;53.962;9.614;2022-10-16T22:32:53;12.80;;;2.78;;
72674;SDS011;60752;53.962;9.614;2022-10-16T22:37:53;10.80;;;3.30;;
72674;SDS011;60752;53.962;9.614;2022-10-16T22:42:55;16.23;;;2.67;;
72674;SDS011;60752;53.962;9.614;2022-10-16T22:47:56;11.50;;;3.00;;
72674;SDS011;60752;53.962;9.614;2022-10-16T22:52:56;12.93;;;2.57;;
72674;SDS011;60752;53.962;9.614;2022-10-16T22:57:58;12.50;;;3.30;;
72674;SDS011;60752;53.962;9.614;2022-10-16T23:02:59;15.73;;;2.88;;
72674;SDS011;60752;53.962;9.614;2022-10-16T23:07:59;12.60;;;3.13;;
72674;SDS011;60752;53.962;9.614;2022-10-16T23:13:01;10.40;;;2.50;;
72674;SDS011;60752;53.962;9.614;2022-10-16T23:18:01;14.83;;;2.73;;
72674;SDS011;60752;53.962;9.614;2022-10-16T23:23:02;9.33;;;2.70;;
72674;SDS011;60752;53.962;9.614;2022-10-16T23:28:03;10.97;;;2.37;;
72674;SDS011;60752;53.962;9.614;2022-10-16T23:33:04;6.93;;;1.70;;
72674;SDS011;60752;53.962;9.614;2022-10-16T23:38:04;15.23;;;2.53;;
72674;SDS011;60752;53.962;9.614;2022-10-16T23:43:06;8.35;;;1.70;;
72674;SDS011;60752;53.962;9.614;2022-10-16T23:48:06;12.90;;;2.10;;
72674;SDS011;60752;53.962;9.614;2022-10-16T23:53:07;13.67;;;2.03;;
72674;SDS011;60752;53.962;9.614;2022-10-16T23:58:09;11.57;;;1.77;;
